sensor_id;sensor_type;location;lat;lon;timestamp;P1;durP1;ratioP1;P2;durP2;ratioP2
15151;SDS011;7676;50.900;6.234;2024-03-17T00:08:03;6.40;;;5.60;;
15151;SDS011;7676;50.900;6.234;2024-03-17T00:23:09;7.83;;;6.03;;
15151;SDS011;7676;50.900;6.234;2024-03-17T00:38:12;5.43;;;4.87;;
15151;SDS011;7676;50.900;6.234;2024-03-17T00:53:14;4.67;;;4.27;;
15151;SDS011;7676;50.900;6.234;2024-03-17T01:08:16;4.60;;;4.10;;
15151;SDS011;7676;50.900;6.234;2024-03-17T01:23:18;4.17;;;3.77;;
15151;SDS011;7676;50.900;6.234;2024-03-17T01:38:19;3.87;;;3.53;;
15151;SDS011;7676;50.900;6.234;2024-03-17T01:53:22;3.87;;;3.30;;
15151;SDS011;7676;50.900;6.234;2024-03-17T02:08:26;4.33;;;3.93;;
15151;SDS011;7676;50.900;6.234;2024-03-17T02:23:27;3.97;;;3.43;;
15151;SDS011;7676;50.900;6.234;2024-03-17T02:38:30;3.23;;;2.93;;
15151;SDS011;7676;50.900;6.234;2024-03-17T02:53:50;3.87;;;2.73;;
15151;SDS011;7676;50.900;6.234;2024-03-17T03:08:52;3.87;;;2.63;;
15151;SDS011;7676;50.900;6.234;2024-03-17T03:23:54;3.80;;;2.97;;
15151;SDS011;7676;50.900;6.234;2024-03-17T03:38:59;3.17;;;2.87;;
15151;SDS011;7676;50.900;6.234;2024-03-17T03:55:04;4.47;;;3.00;;
15151;SDS011;7676;50.900;6.234;2024-03-17T04:11:06;4.37;;;3.67;;
15151;SDS011;7676;50.900;6.234;2024-03-17T04:27:48;4.47;;;3.83;;
15151;SDS011;7676;50.900;6.234;2024-03-17T04:42:50;3.90;;;3.47;;
15151;SDS011;7676;50.900;6.234;2024-03-17T04:57:52;4.90;;;3.77;;
15151;SDS011;7676;50.900;6.234;2024-03-17T05:12:53;3.70;;;3.40;;
15151;SDS011;7676;50.900;6.234;2024-03-17T05:27:56;4.13;;;3.70;;
15151;SDS011;7676;50.900;6.234;2024-03-17T05:42:58;5.03;;;3.67;;
15151;SDS011;7676;50.900;6.234;2024-03-17T05:58:01;5.13;;;3.43;;
15151;SDS011;7676;50.900;6.234;2024-03-17T06:13:03;4.43;;;4.03;;
15151;SDS011;7676;50.900;6.234;2024-03-17T06:28:05;4.27;;;3.60;;
15151;SDS011;7676;50.900;6.234;2024-03-17T06:43:07;4.37;;;3.37;;
15151;SDS011;7676;50.900;6.234;2024-03-17T06:58:09;4.40;;;3.90;;
15151;SDS011;7676;50.900;6.234;2024-03-17T07:13:10;3.67;;;3.27;;
15151;SDS011;7676;50.900;6.234;2024-03-17T07:28:12;4.00;;;3.17;;
15151;SDS011;7676;50.900;6.234;2024-03-17T07:43:14;4.30;;;3.57;;
15151;SDS011;7676;50.900;6.234;2024-03-17T07:58:15;4.90;;;3.47;;
15151;SDS011;7676;50.900;6.234;2024-03-17T08:13:17;5.47;;;3.70;;
15151;SDS011;7676;50.900;6.234;2024-03-17T08:28:19;6.27;;;4.40;;
15151;SDS011;7676;50.900;6.234;2024-03-17T08:43:22;6.23;;;4.23;;
15151;SDS011;7676;50.900;6.234;2024-03-17T08:58:26;5.10;;;4.33;;
15151;SDS011;7676;50.900;6.234;2024-03-17T09:14:30;5.27;;;4.57;;
15151;SDS011;7676;50.900;6.234;2024-03-17T09:30:46;5.50;;;4.63;;
15151;SDS011;7676;50.900;6.234;2024-03-17T09:47:24;6.83;;;4.57;;
15151;SDS011;7676;50.900;6.234;2024-03-17T10:19:51;6.43;;;4.50;;
15151;SDS011;7676;50.900;6.234;2024-03-17T10:34:53;5.07;;;4.20;;
15151;SDS011;7676;50.900;6.234;2024-03-17T10:49:56;5.10;;;3.97;;
15151;SDS011;7676;50.900;6.234;2024-03-17T11:05:05;5.60;;;4.17;;
15151;SDS011;7676;50.900;6.234;2024-03-17T11:20:26;4.70;;;4.13;;
15151;SDS011;7676;50.900;6.234;2024-03-17T11:35:31;4.63;;;4.10;;
15151;SDS011;7676;50.900;6.234;2024-03-17T11:50:33;6.30;;;4.50;;
15151;SDS011;7676;50.900;6.234;2024-03-17T12:05:35;6.20;;;4.67;;
15151;SDS011;7676;50.900;6.234;2024-03-17T12:20:39;5.63;;;4.40;;
15151;SDS011;7676;50.900;6.234;2024-03-17T12:36:36;7.80;;;5.20;;
15151;SDS011;7676;50.900;6.234;2024-03-17T12:52:27;6.13;;;5.17;;
15151;SDS011;7676;50.900;6.234;2024-03-17T13:08:55;7.07;;;4.87;;
15151;SDS011;7676;50.900;6.234;2024-03-17T13:25:32;6.37;;;4.50;;
15151;SDS011;7676;50.900;6.234;2024-03-17T13:42:29;6.63;;;4.70;;
15151;SDS011;7676;50.900;6.234;2024-03-17T13:59:23;8.37;;;5.10;;
15151;SDS011;7676;50.900;6.234;2024-03-17T14:16:16;6.10;;;4.73;;
15151;SDS011;7676;50.900;6.234;2024-03-17T14:31:18;5.37;;;3.73;;
15151;SDS011;7676;50.900;6.234;2024-03-17T14:46:20;5.87;;;2.87;;
15151;SDS011;7676;50.900;6.234;2024-03-17T15:01:21;3.73;;;2.00;;
15151;SDS011;7676;50.900;6.234;2024-03-17T15:16:23;3.90;;;2.30;;
15151;SDS011;7676;50.900;6.234;2024-03-17T15:31:25;3.13;;;1.40;;
15151;SDS011;7676;50.900;6.234;2024-03-17T15:46:26;2.77;;;1.30;;
15151;SDS011;7676;50.900;6.234;2024-03-17T16:01:28;3.13;;;1.60;;
15151;SDS011;7676;50.900;6.234;2024-03-17T16:16:29;2.23;;;1.73;;
15151;SDS011;7676;50.900;6.234;2024-03-17T16:31:32;2.07;;;1.40;;
15151;SDS011;7676;50.900;6.234;2024-03-17T17:01:48;1.97;;;1.10;;
15151;SDS011;7676;50.900;6.234;2024-03-17T17:16:50;3.53;;;2.37;;
15151;SDS011;7676;50.900;6.234;2024-03-17T17:31:53;4.47;;;3.50;;
15151;SDS011;7676;50.900;6.234;2024-03-17T17:46:55;2.20;;;1.60;;
15151;SDS011;7676;50.900;6.234;2024-03-17T18:01:56;2.73;;;1.97;;
15151;SDS011;7676;50.900;6.234;2024-03-17T18:16:58;3.50;;;2.17;;
15151;SDS011;7676;50.900;6.234;2024-03-17T18:32:00;3.83;;;2.53;;
15151;SDS011;7676;50.900;6.234;2024-03-17T18:47:02;3.10;;;1.97;;
15151;SDS011;7676;50.900;6.234;2024-03-17T19:02:04;4.17;;;2.17;;
15151;SDS011;7676;50.900;6.234;2024-03-17T19:17:07;2.90;;;2.10;;
15151;SDS011;7676;50.900;6.234;2024-03-17T19:32:11;2.60;;;2.17;;
15151;SDS011;7676;50.900;6.234;2024-03-17T19:47:13;3.17;;;1.93;;
15151;SDS011;7676;50.900;6.234;2024-03-17T20:02:23;3.00;;;2.23;;
15151;SDS011;7676;50.900;6.234;2024-03-17T20:17:24;2.93;;;2.33;;
15151;SDS011;7676;50.900;6.234;2024-03-17T20:32:26;3.67;;;2.20;;
15151;SDS011;7676;50.900;6.234;2024-03-17T20:47:28;3.47;;;2.80;;
15151;SDS011;7676;50.900;6.234;2024-03-17T21:02:32;3.93;;;2.70;;
15151;SDS011;7676;50.900;6.234;2024-03-17T21:17:36;5.00;;;2.50;;
15151;SDS011;7676;50.900;6.234;2024-03-17T21:32:42;4.53;;;2.97;;
15151;SDS011;7676;50.900;6.234;2024-03-17T21:48:52;3.07;;;2.73;;
15151;SDS011;7676;50.900;6.234;2024-03-17T22:05:10;5.73;;;2.77;;
15151;SDS011;7676;50.900;6.234;2024-03-17T22:21:03;2.80;;;2.53;;
15151;SDS011;7676;50.900;6.234;2024-03-17T22:37:24;4.97;;;3.07;;
15151;SDS011;7676;50.900;6.234;2024-03-17T22:53:21;4.27;;;2.83;;
15151;SDS011;7676;50.900;6.234;2024-03-17T23:10:07;4.00;;;2.60;;
15151;SDS011;7676;50.900;6.234;2024-03-17T23:26:25;2.87;;;2.20;;
15151;SDS011;7676;50.900;6.234;2024-03-17T23:42:32;4.20;;;2.70;;
15151;SDS011;7676;50.900;6.234;2024-03-17T23:58:30;0.90;;;0.83;;
